createdAt,value
2018-06-10T00:02:37.319Z,10.31
2018-06-10T00:08:32.387Z,8.18
2018-06-10T00:14:27.336Z,7.65
2018-06-10T00:20:22.379Z,7.98
2018-06-10T00:26:17.318Z,7.57
2018-06-10T00:32:12.323Z,11.33
2018-06-10T00:38:07.327Z,9.69
2018-06-10T00:44:02.376Z,10.36
2018-06-10T00:49:57.352Z,12.14
2018-06-10T00:55:52.362Z,9.16
2018-06-10T01:01:47.367Z,7.71
2018-06-10T01:07:42.346Z,7.86
2018-06-10T01:13:37.359Z,5.83
2018-06-10T01:19:32.345Z,6.7
2018-06-10T01:25:27.342Z,7.19
2018-06-10T01:31:22.348Z,9.87
2018-06-10T01:38:20.998Z,9.42
2018-06-10T01:43:12.365Z,7.63
2018-06-10T01:49:07.332Z,7.23
2018-06-10T01:55:02.348Z,12.49
2018-06-10T02:00:57.326Z,6.73
2018-06-10T02:06:52.388Z,10.19
2018-06-10T02:12:47.379Z,8.78
2018-06-10T02:18:42.341Z,8.03
2018-06-10T02:24:37.353Z,11.42
2018-06-10T02:30:32.333Z,7.66
2018-06-10T02:36:27.368Z,8.62
2018-06-10T02:42:22.390Z,8.1
2018-06-10T02:48:17.445Z,9.94
2018-06-10T02:54:12.421Z,6.65
2018-06-10T03:00:07.384Z,8.19
2018-06-10T03:06:02.911Z,6.52
2018-06-10T03:11:57.386Z,10.62
2018-06-10T03:17:52.404Z,10.36
2018-06-10T03:23:47.365Z,8.28
2018-06-10T03:29:42.376Z,10.75
2018-06-10T03:35:37.403Z,11.16
2018-06-10T03:41:35.176Z,8.1
2018-06-10T03:47:27.384Z,9.07
2018-06-10T03:53:22.356Z,7.35
2018-06-10T03:59:17.413Z,8.02
2018-06-10T04:05:12.372Z,8.23
2018-06-10T04:11:07.366Z,10.49
2018-06-10T04:17:02.387Z,11.47
2018-06-10T04:22:57.400Z,7.8
2018-06-10T04:28:52.398Z,8.13
2018-06-10T04:34:47.386Z,9.15
2018-06-10T04:40:42.394Z,7.78
2018-06-10T04:46:37.359Z,6.48
2018-06-10T04:52:32.403Z,8.19
2018-06-10T04:58:27.477Z,9.09
2018-06-10T05:04:22.403Z,9.11
2018-06-10T05:10:17.455Z,10.15
2018-06-10T05:16:12.416Z,10.33
2018-06-10T05:22:07.449Z,6.38
2018-06-10T05:28:02.433Z,8.76
2018-06-10T05:33:57.406Z,7.08
2018-06-10T05:39:52.488Z,9.92
2018-06-10T05:45:47.399Z,12.69
2018-06-10T05:51:42.396Z,6.44
2018-06-10T05:57:37.426Z,6.99
2018-06-10T06:03:32.437Z,9.15
2018-06-10T06:09:27.459Z,12.01
2018-06-10T06:15:22.420Z,6.46
2018-06-10T06:21:17.407Z,7.35
2018-06-10T06:27:12.459Z,7.88
2018-06-10T06:33:07.429Z,10.38
2018-06-10T06:39:02.424Z,7.7
2018-06-10T06:44:57.423Z,8.5
2018-06-10T06:50:52.401Z,6.75
2018-06-10T06:56:47.894Z,10.55
2018-06-10T07:02:42.384Z,10.6
2018-06-10T07:08:37.483Z,11.43
2018-06-10T07:14:32.386Z,9.97
2018-06-10T07:20:27.401Z,8.26
2018-06-10T07:26:22.417Z,11.11
2018-06-10T07:32:17.433Z,9.48
2018-06-10T07:38:12.411Z,10.75
2018-06-10T07:44:07.452Z,10.55
2018-06-10T07:50:02.436Z,9.9
2018-06-10T07:55:57.435Z,12.96
2018-06-10T08:01:52.458Z,12.57
2018-06-10T08:07:47.434Z,11.69
2018-06-10T08:13:42.516Z,10.86
2018-06-10T08:19:37.456Z,9.64
2018-06-10T08:25:32.486Z,13.45
2018-06-10T08:31:27.429Z,9.02
2018-06-10T08:37:22.569Z,11.16
2018-06-10T08:43:17.528Z,10.94
2018-06-10T08:49:16.551Z,10.68
2018-06-10T08:55:10.498Z,12.48
2018-06-10T09:01:22.541Z,12.69
2018-06-10T09:08:00.660Z,11
2018-06-10T09:13:13.602Z,13.25
2018-06-10T09:18:52.505Z,11.57
2018-06-10T09:24:42.497Z,12.26
2018-06-10T09:30:38.479Z,13.3
2018-06-10T09:36:40.898Z,12.83
2018-06-10T09:42:31.547Z,10.52
2018-06-10T09:48:26.589Z,11.35
2018-06-10T09:54:21.606Z,10.85
2018-06-10T10:00:13.476Z,12.48
2018-06-10T10:06:15.460Z,9.98
2018-06-10T10:12:03.475Z,9.87
2018-06-10T10:17:58.495Z,10.51
2018-06-10T10:23:52.491Z,10.63
2018-06-10T10:29:48.452Z,13.03
2018-06-10T10:35:46.552Z,10.61
2018-06-10T10:41:40.483Z,10.2
2018-06-10T10:47:37.600Z,7.76
2018-06-10T10:53:27.554Z,7.6
2018-06-10T10:59:22.510Z,11.13
2018-06-10T11:05:17.533Z,10.27
2018-06-10T11:11:12.481Z,6.79
2018-06-10T11:17:07.504Z,7.03
2018-06-10T11:23:02.623Z,5.4
2018-06-10T11:28:57.501Z,5.87
2018-06-10T11:34:52.499Z,7.1
2018-06-10T11:40:47.504Z,5.02
2018-06-10T11:46:42.514Z,8.07
2018-06-10T11:52:37.545Z,9.53
2018-06-10T11:58:32.532Z,9.59
2018-06-10T12:04:27.543Z,7
2018-06-10T12:10:22.659Z,5.6
2018-06-10T12:16:17.538Z,9.56
2018-06-10T12:22:12.528Z,6.4
2018-06-10T12:28:07.527Z,6.77
2018-06-10T12:34:02.550Z,6.92
2018-06-10T12:39:57.609Z,8.37
2018-06-10T12:45:52.589Z,4.47
2018-06-10T12:51:47.516Z,3.46
2018-06-10T12:57:42.566Z,6.83
2018-06-10T13:03:37.519Z,6.05
2018-06-10T13:09:32.597Z,4.17
2018-06-10T13:15:27.534Z,4.35
2018-06-10T13:21:24.466Z,5.08
2018-06-10T13:27:17.581Z,8.46
2018-06-10T13:33:12.579Z,5.86
2018-06-10T13:39:07.550Z,5.79
2018-06-10T13:45:02.579Z,4.07
2018-06-10T13:50:57.570Z,3.94
2018-06-10T13:56:52.594Z,6.92
2018-06-10T14:02:52.426Z,2.91
2018-06-10T14:08:42.647Z,3.83
2018-06-10T14:14:37.552Z,3.67
2018-06-10T14:20:32.603Z,6.65
2018-06-10T14:26:27.562Z,2.93
2018-06-10T14:32:22.564Z,3.23
2018-06-10T14:38:17.594Z,3.42
2018-06-10T14:44:12.599Z,3.18
2018-06-10T14:50:07.609Z,3.15
2018-06-10T14:56:02.579Z,5.93
2018-06-10T15:01:57.590Z,3.39
2018-06-10T15:07:52.648Z,6.06
2018-06-10T15:13:47.606Z,5.64
2018-06-10T15:55:12.658Z,3.16
2018-06-10T16:01:07.606Z,2.54
2018-06-10T16:07:02.692Z,2.82
2018-06-10T16:12:57.694Z,4.01
2018-06-10T16:18:52.677Z,4.24
2018-06-10T16:24:47.732Z,2.31
2018-06-10T16:30:42.610Z,4.37
2018-06-10T16:36:37.708Z,4.09
2018-06-10T16:42:32.720Z,3.17
2018-06-10T16:48:27.617Z,2.59
2018-06-10T16:54:22.629Z,2.26
2018-06-10T17:00:17.679Z,3.36
2018-06-10T17:06:12.630Z,4.83
2018-06-10T17:12:07.654Z,5.68
2018-06-10T17:18:02.702Z,4.29
2018-06-10T17:23:57.638Z,5.9
2018-06-10T17:29:52.628Z,5.63
2018-06-10T17:35:47.681Z,5.2
2018-06-10T17:41:42.677Z,3.74
2018-06-10T17:47:37.706Z,4.43
2018-06-10T17:53:32.669Z,2.35
2018-06-10T17:59:27.700Z,4.2
2018-06-10T18:05:23.121Z,4.11
2018-06-10T18:11:17.775Z,2.74
2018-06-10T18:17:12.662Z,3.84
2018-06-10T18:23:07.857Z,3.59
2018-06-10T18:29:02.695Z,7.35
2018-06-10T18:34:57.666Z,3.43
2018-06-10T18:40:52.730Z,6.51
2018-06-10T18:46:47.875Z,6.56
2018-06-10T18:52:42.657Z,4.57
2018-06-10T18:58:40.912Z,4.48
2018-06-10T19:04:32.786Z,4.14
2018-06-10T19:10:27.731Z,7.7
2018-06-10T19:16:22.698Z,6.59
2018-06-10T19:22:17.907Z,2.83
2018-06-10T19:28:12.696Z,3.87
2018-06-10T19:34:07.817Z,3.85
2018-06-10T19:40:06.829Z,4.32
2018-06-10T19:45:57.741Z,4.35
2018-06-10T19:51:52.812Z,4.28
2018-06-10T19:57:47.800Z,5.71
2018-06-10T20:03:42.775Z,3.28
2018-06-10T20:09:37.744Z,3.73
2018-06-10T20:15:32.871Z,5.3
2018-06-10T20:21:27.719Z,7.67
2018-06-10T20:27:22.723Z,3.58
2018-06-10T20:33:17.824Z,5.82
2018-06-10T20:39:12.754Z,3.43
2018-06-10T20:45:07.720Z,3.67
2018-06-10T20:51:02.743Z,3.84
2018-06-10T20:56:57.751Z,4.32
2018-06-10T21:02:52.770Z,4.52
2018-06-10T21:08:47.794Z,3.13
2018-06-10T21:14:42.814Z,3.77
2018-06-10T21:20:38.533Z,5.19
2018-06-10T21:26:32.737Z,4.2
2018-06-10T21:32:27.742Z,3.8
2018-06-10T21:38:22.761Z,2.97
2018-06-10T21:44:17.988Z,3.62
2018-06-10T21:50:12.774Z,3.04
2018-06-10T21:56:07.939Z,9.9
2018-06-10T22:02:02.758Z,2.76
2018-06-10T22:07:58.245Z,4.83
2018-06-10T22:13:53.012Z,2.49
2018-06-10T22:19:48.061Z,3.13
2018-06-10T22:25:42.763Z,3.67
2018-06-10T22:31:37.763Z,4.36
2018-06-10T22:37:32.799Z,2.5
2018-06-10T22:43:27.765Z,5.51
2018-06-10T22:49:22.732Z,2.81
2018-06-10T22:55:17.762Z,2
2018-06-10T23:01:12.825Z,5.02
2018-06-10T23:07:08.396Z,2.74
2018-06-10T23:13:02.753Z,3.75
2018-06-10T23:18:57.761Z,2.08
2018-06-10T23:24:52.767Z,3.79
2018-06-10T23:30:49.020Z,4.55
2018-06-10T23:36:43.203Z,1.94
2018-06-10T23:42:37.796Z,2.64
2018-06-10T23:48:33.220Z,3.07
2018-06-10T23:54:27.974Z,6.16
